Time;durP1;ratioP1;P1;durP2;ratioP2;P2;SDS_P1;SDS_P2;PMS_P1;PMS_P2;Temp;Humidity;BMP_temperature;BMP_pressure;BME280_temperature;BME280_humidity;BME280_pressure;Samples;Min_cycle;Max_cycle;Signal;HPM_P1;HPM_P2
2021/12/09 00:02:20;;;;;;;2.60;1.80;;;;;;;20.11;35.95;98106.09;5131570;27;20050;-57
2021/12/09 00:04:48;;;;;;;2.72;1.90;;;;;;;20.12;35.91;98102.13;5133337;27;20046;-56
2021/12/09 00:07:14;;;;;;;2.22;1.45;;;;;;;20.10;36.01;98110.84;5121288;27;20039;-57
2021/12/09 00:09:40;;;;;;;2.55;1.67;;;;;;;20.10;35.96;98105.31;5130947;27;20371;-57
2021/12/09 00:12:06;;;;;;;2.50;1.50;;;;;;;20.14;35.90;98111.63;5133095;27;20556;-57
2021/12/09 00:14:34;;;;;;;2.25;1.63;;;;;;;20.14;35.96;98108.84;5126602;27;20044;-56
2021/12/09 00:17:09;;;;;;;2.53;1.60;;;;;;;20.15;35.89;98104.13;5131297;27;20043;-57
2021/12/09 00:19:35;;;;;;;2.70;1.90;;;;;;;20.15;35.82;98113.22;5120147;28;20040;-56
2021/12/09 00:22:04;;;;;;;1.90;1.30;;;;;;;20.14;35.96;98113.59;5123232;27;20590;-57
2021/12/09 00:24:29;;;;;;;2.38;1.55;;;;;;;20.13;35.94;98112.81;5133137;27;20133;-56
2021/12/09 00:26:55;;;;;;;2.75;1.70;;;;;;;20.11;36.10;98114.44;5127738;27;20066;-56
2021/12/09 00:29:20;;;;;;;2.50;1.80;;;;;;;20.13;35.95;98112.81;5131558;27;20040;-56
2021/12/09 00:31:49;;;;;;;2.30;1.65;;;;;;;20.14;35.94;98130.25;5129277;27;20042;-56
2021/12/09 00:34:16;;;;;;;2.78;1.77;;;;;;;20.14;36.01;98122.72;5121006;27;20552;-56
2021/12/09 00:36:54;;;;;;;2.50;1.80;;;;;;;20.13;35.99;98129.47;5130198;27;20085;-56
2021/12/09 00:39:20;;;;;;;3.05;2.08;;;;;;;20.14;35.84;98122.72;5120393;28;20474;-56
2021/12/09 00:41:46;;;;;;;3.17;2.15;;;;;;;20.12;35.95;98127.91;5125380;27;20730;-56
2021/12/09 00:44:11;;;;;;;2.45;1.90;;;;;;;20.10;35.98;98127.50;5132771;27;20087;-56
2021/12/09 00:46:38;;;;;;;2.78;1.90;;;;;;;20.13;36.04;98126.69;5129987;27;20040;-56
2021/12/09 00:49:03;;;;;;;2.65;1.98;;;;;;;20.16;36.03;98137.03;5129771;27;20066;-56
2021/12/09 00:51:29;;;;;;;2.67;1.90;;;;;;;20.16;35.86;98148.13;5132832;27;20065;-56
2021/12/09 00:53:54;;;;;;;2.78;1.83;;;;;;;20.17;35.81;98138.59;5128954;27;20050;-56
2021/12/09 00:56:20;;;;;;;2.72;2.00;;;;;;;20.17;35.85;98135.81;5130656;27;20045;-56
2021/12/09 00:58:45;;;;;;;2.92;2.10;;;;;;;20.16;35.93;98137.03;5132063;27;20048;-56
2021/12/09 01:01:11;;;;;;;2.65;1.92;;;;;;;20.17;35.85;98143.38;5128089;27;20074;-56
2021/12/09 01:03:38;;;;;;;3.05;2.10;;;;;;;20.18;35.88;98150.50;5131095;27;20510;-56
2021/12/09 01:06:07;;;;;;;3.10;2.25;;;;;;;20.18;35.91;98148.50;5131502;27;20134;-56
2021/12/09 01:08:33;;;;;;;2.90;2.00;;;;;;;20.19;35.80;98149.28;5118994;28;20121;-56
2021/12/09 01:10:58;;;;;;;2.30;1.58;;;;;;;20.19;35.82;98152.88;5120053;28;20507;-57
2021/12/09 01:13:24;;;;;;;3.13;2.10;;;;;;;20.18;35.81;98159.59;5122664;27;20044;-57
2021/12/09 01:15:49;;;;;;;2.70;2.00;;;;;;;20.17;35.89;98155.25;5128214;27;20024;-57
2021/12/09 01:18:15;;;;;;;2.80;2.00;;;;;;;20.16;35.68;98162.00;5132264;27;20031;-57
2021/12/09 01:20:41;;;;;;;3.10;2.20;;;;;;;20.17;35.70;98165.56;5129597;27;20629;-57
2021/12/09 01:23:07;;;;;;;2.60;1.95;;;;;;;20.16;35.62;98166.75;5128447;27;20042;-57
2021/12/09 01:25:36;;;;;;;2.60;2.00;;;;;;;20.14;35.75;98172.69;5132223;27;20039;-57
2021/12/09 01:28:09;;;;;;;3.00;1.95;;;;;;;20.14;35.60;98178.25;5124254;27;20046;-57
2021/12/09 01:30:35;;;;;;;;;;;;;;;20.16;35.82;98186.19;5117441;28;20546;-56
2021/12/09 01:33:01;;;;;;;2.80;1.92;;;;;;;20.13;35.78;98187.78;5119735;28;19915;-56
2021/12/09 01:35:32;;;;;;;2.50;1.60;;;;;;;20.12;35.66;98182.63;5132042;27;20499;-56
2021/12/09 01:38:02;;;;;;;2.70;1.83;;;;;;;20.10;35.60;98185.03;5119270;28;20093;-57
2021/12/09 01:40:30;;;;;;;2.38;1.55;;;;;;;20.13;35.71;98185.00;5121480;27;20063;-57
2021/12/09 01:42:57;;;;;;;3.45;2.47;;;;;;;20.09;35.78;98175.91;5122827;27;20422;-56
2021/12/09 01:45:23;;;;;;;2.47;1.75;;;;;;;20.11;35.76;98186.59;5129470;27;20134;-57
2021/12/09 01:47:49;;;;;;;2.80;1.70;;;;;;;20.13;35.77;98187.78;5132004;27;20122;-57
2021/12/09 01:50:15;;;;;;;2.85;2.00;;;;;;;20.11;35.67;98190.16;5118261;28;20046;-56
2021/12/09 01:52:42;;;;;;;2.47;1.70;;;;;;;20.10;35.95;98187.78;5119626;28;20043;-56
2021/12/09 01:55:09;;;;;;;2.55;1.92;;;;;;;20.11;35.66;98206.03;5127534;27;20573;-56
2021/12/09 01:57:35;;;;;;;2.38;1.70;;;;;;;20.10;35.70;98202.47;5122330;27;20035;-56
2021/12/09 02:00:04;;;;;;;2.75;1.70;;;;;;;20.12;35.57;98193.72;5129924;27;20227;-56
2021/12/09 02:02:30;;;;;;;2.72;1.70;;;;;;;20.11;35.71;98215.16;5131844;27;20047;-56
2021/12/09 02:04:55;;;;;;;2.88;1.70;;;;;;;20.10;35.78;98215.56;5127959;27;20050;-56
2021/12/09 02:07:20;;;;;;;2.97;2.10;;;;;;;20.09;35.73;98208.41;5129960;27;20031;-56
2021/12/09 02:09:46;;;;;;;2.40;1.70;;;;;;;20.08;35.81;98213.19;5130500;27;20047;-57
2021/12/09 02:12:12;;;;;;;2.22;1.45;;;;;;;20.08;35.67;98206.84;5127554;27;20055;-57
2021/12/09 02:14:43;;;;;;;1.90;1.40;;;;;;;20.06;35.92;98204.44;5130956;27;20395;-57
2021/12/09 02:17:10;;;;;;;2.17;1.48;;;;;;;20.03;35.70;98208.03;5131348;27;20043;-56
2021/12/09 02:19:39;;;;;;;2.58;1.65;;;;;;;20.04;35.73;98210.41;5118238;28;20118;-56
2021/12/09 02:22:05;;;;;;;2.40;1.60;;;;;;;20.04;36.05;98215.94;5118776;28;20084;-56
2021/12/09 02:24:30;;;;;;;2.47;1.67;;;;;;;20.04;35.61;98217.94;5131321;27;20043;-57
2021/12/09 02:26:55;;;;;;;2.00;1.42;;;;;;;20.00;35.67;98212.41;5127396;27;20525;-57
2021/12/09 02:29:21;;;;;;;2.50;1.55;;;;;;;20.01;35.72;98215.97;5129670;27;20035;-56
2021/12/09 02:31:47;;;;;;;2.28;1.55;;;;;;;20.03;35.71;98213.56;5130992;27;20498;-57
2021/12/09 02:34:13;;;;;;;2.10;1.50;;;;;;;20.04;35.65;98217.94;5130766;27;20558;-57
2021/12/09 02:36:40;;;;;;;2.30;1.60;;;;;;;20.03;35.70;98211.59;5133873;27;20500;-57
2021/12/09 02:39:09;;;;;;;2.08;1.40;;;;;;;20.04;35.78;98212.38;5133788;27;20032;-57
2021/12/09 02:41:36;;;;;;;2.42;1.50;;;;;;;20.02;35.82;98212.78;5130079;27;20036;-56
2021/12/09 02:44:05;;;;;;;2.75;1.70;;;;;;;20.02;35.80;98217.53;5132543;27;20061;-57
2021/12/09 02:46:37;;;;;;;2.25;1.60;;;;;;;20.01;35.83;98224.28;5132294;27;20451;-56
2021/12/09 02:49:10;;;;;;;2.30;1.50;;;;;;;20.00;35.68;98220.72;5122952;28;20109;-57
2021/12/09 02:51:35;;;;;;;;;;;;;;;20.05;35.66;98222.28;5131971;27;20038;-56
2021/12/09 02:54:03;;;;;;;2.08;1.50;;;;;;;20.02;35.67;98220.31;5132055;27;19961;-56
2021/12/09 02:56:29;;;;;;;2.00;1.40;;;;;;;19.97;35.80;98215.97;5130714;27;20047;-57
2021/12/09 02:58:54;;;;;;;2.15;1.40;;;;;;;19.95;35.86;98215.56;5134505;27;20046;-58
2021/12/09 03:01:26;;;;;;;2.00;1.40;;;;;;;19.97;35.74;98223.50;5131511;27;20035;-57
2021/12/09 03:03:57;;;;;;;1.75;1.33;;;;;;;19.95;35.81;98207.25;5130284;27;20101;-57
2021/12/09 03:06:29;;;;;;;1.90;1.20;;;;;;;19.94;35.77;98219.53;5132378;27;20043;-56
2021/12/09 03:08:55;;;;;;;1.63;1.15;;;;;;;19.96;35.83;98222.69;5134273;27;20475;-56
2021/12/09 03:11:22;;;;;;;2.38;1.10;;;;;;;19.98;35.61;98225.88;5131533;27;20107;-56
2021/12/09 03:13:49;;;;;;;1.50;0.90;;;;;;;19.97;35.72;98229.03;5131232;27;20072;-56
2021/12/09 03:16:15;;;;;;;1.75;0.98;;;;;;;19.94;35.76;98218.75;5134352;27;20034;-56
2021/12/09 03:18:47;;;;;;;1.35;0.90;;;;;;;19.93;35.86;98219.91;5131361;27;20043;-56
2021/12/09 03:21:26;;;;;;;1.65;1.02;;;;;;;19.94;35.91;98224.31;5130276;27;20547;-56
2021/12/09 03:23:53;;;;;;;1.90;1.00;;;;;;;19.94;35.94;98229.84;5129822;27;20054;-56
2021/12/09 03:26:25;;;;;;;1.90;1.00;;;;;;;19.93;35.88;98223.50;5133513;27;20031;-56
2021/12/09 03:28:52;;;;;;;1.23;0.88;;;;;;;19.93;35.96;98228.25;5133851;27;20108;-56
2021/12/09 03:31:18;;;;;;;1.20;0.88;;;;;;;19.94;36.03;98230.63;5118959;28;20027;-56
2021/12/09 03:33:43;;;;;;;1.15;0.75;;;;;;;19.92;35.92;98229.44;5121654;28;20050;-56
2021/12/09 03:36:09;;;;;;;1.10;0.82;;;;;;;19.92;35.83;98229.44;5124798;27;20417;-56
2021/12/09 03:38:35;;;;;;;1.13;0.70;;;;;;;19.91;35.98;98228.66;5129828;27;20449;-56
2021/12/09 03:41:00;;;;;;;1.08;0.77;;;;;;;19.87;35.87;98227.06;5132859;27;20034;-56
2021/12/09 03:43:26;;;;;;;0.93;0.68;;;;;;;19.90;35.96;98227.06;5131536;27;20056;-56
2021/12/09 03:45:55;;;;;;;0.80;0.60;;;;;;;19.89;36.07;98235.78;5129763;27;20039;-57
2021/12/09 03:48:25;;;;;;;1.20;0.70;;;;;;;19.88;35.99;98240.56;5124881;27;20070;-57
2021/12/09 03:50:52;;;;;;;1.23;0.80;;;;;;;19.91;36.32;98238.94;5129899;27;20039;-56
2021/12/09 03:53:18;;;;;;;0.85;0.50;;;;;;;19.88;36.16;98248.09;5124008;27;20044;-56
2021/12/09 03:55:44;;;;;;;0.70;0.50;;;;;;;19.89;36.07;98247.69;5131734;27;20088;-56
2021/12/09 03:58:09;;;;;;;0.55;0.50;;;;;;;19.87;36.02;98247.28;5132997;27;20122;-57
2021/12/09 04:00:35;;;;;;;0.77;0.60;;;;;;;19.91;36.04;98236.19;5129469;27;20039;-57
2021/12/09 04:03:01;;;;;;;0.77;0.55;;;;;;;19.89;35.98;98249.66;5132808;27;20395;-57
2021/12/09 04:05:26;;;;;;;0.50;0.50;;;;;;;19.90;35.99;98248.47;5131850;27;20559;-56
2021/12/09 04:07:52;;;;;;;0.80;0.50;;;;;;;19.87;36.03;98247.28;5129443;27;20043;-56
2021/12/09 04:10:17;;;;;;;0.60;0.50;;;;;;;19.91;36.16;98252.81;5119803;28;20046;-56
2021/12/09 04:12:43;;;;;;;0.68;0.40;;;;;;;19.88;36.15;98251.66;5130047;27;20039;-56
2021/12/09 04:15:09;;;;;;;0.77;0.60;;;;;;;19.87;36.22;98255.63;5132509;27;20496;-57
2021/12/09 04:17:35;;;;;;;0.60;0.40;;;;;;;19.90;36.03;98251.25;5129190;27;20055;-57
2021/12/09 04:20:02;;;;;;;0.60;0.40;;;;;;;19.89;36.01;98249.66;5132483;27;20049;-56
2021/12/09 04:22:28;;;;;;;0.50;0.40;;;;;;;19.86;36.05;98251.25;5132267;27;20050;-57
2021/12/09 04:24:53;;;;;;;0.60;0.57;;;;;;;19.87;36.08;98257.59;5128909;27;20043;-57
2021/12/09 04:27:20;;;;;;;0.73;0.40;;;;;;;19.88;36.10;98261.97;5132579;27;20514;-56
2021/12/09 04:29:46;;;;;;;0.43;0.40;;;;;;;19.87;36.07;98250.06;5130727;27;20031;-56
2021/12/09 04:32:11;;;;;;;0.50;0.40;;;;;;;19.87;36.07;98258.41;5129194;27;20088;-56
2021/12/09 04:34:37;;;;;;;0.57;0.50;;;;;;;19.90;36.07;98268.69;5132847;27;20042;-56
2021/12/09 04:37:03;;;;;;;0.63;0.50;;;;;;;19.90;35.93;98276.22;5130009;27;20043;-57
2021/12/09 04:39:29;;;;;;;0.50;0.43;;;;;;;19.89;35.97;98271.88;5129848;27;20047;-57
2021/12/09 04:41:54;;;;;;;0.50;0.50;;;;;;;19.90;35.88;98268.69;5132842;27;20050;-56
2021/12/09 04:44:20;;;;;;;0.50;0.47;;;;;;;19.90;35.98;98282.56;5128907;27;20176;-56
2021/12/09 04:46:47;;;;;;;0.50;0.50;;;;;;;19.88;35.90;98276.63;5130677;27;20046;-56
2021/12/09 04:49:12;;;;;;;0.50;0.30;;;;;;;19.86;35.93;98272.63;5132530;27;20031;-57
2021/12/09 04:51:38;;;;;;;0.50;0.40;;;;;;;19.83;36.07;98284.53;5128499;27;20038;-56
2021/12/09 04:54:05;;;;;;;0.77;0.52;;;;;;;19.83;36.21;98279.78;5131020;27;20035;-57
2021/12/09 04:56:31;;;;;;;0.73;0.50;;;;;;;19.88;36.03;98303.59;5131766;27;20043;-56
2021/12/09 04:58:57;;;;;;;0.45;0.40;;;;;;;19.86;35.99;98305.94;5128166;27;20069;-57
2021/12/09 05:01:22;;;;;;;0.38;0.30;;;;;;;19.88;36.11;98309.13;5131608;27;20062;-56
2021/12/09 05:03:48;;;;;;;0.50;0.47;;;;;;;19.88;35.98;98321.03;5130994;27;20142;-56
2021/12/09 05:06:15;;;;;;;0.52;0.40;;;;;;;19.90;36.02;98323.41;5128190;27;20047;-57
2021/12/09 05:08:46;;;;;;;1.02;0.50;;;;;;;19.86;35.99;98317.03;5131997;27;20050;-56
2021/12/09 05:13:56;;;;;;;0.55;0.45;;;;;;;19.92;35.87;98321.00;5130876;27;20129;-56
2021/12/09 05:16:22;;;;;;;0.63;0.50;;;;;;;19.89;35.86;98327.38;5128553;27;20048;-56
2021/12/09 05:18:50;;;;;;;0.50;0.40;;;;;;;19.89;35.94;98341.25;5129899;27;20058;-57
2021/12/09 05:21:17;;;;;;;0.35;0.35;;;;;;;19.90;35.88;98340.06;5132286;27;20039;-56
2021/12/09 05:23:43;;;;;;;0.20;0.20;;;;;;;19.90;35.87;98334.50;5128789;27;20449;-56
2021/12/09 05:26:09;;;;;;;0.57;0.45;;;;;;;19.90;35.80;98343.63;5129467;27;20035;-56
2021/12/09 05:28:36;;;;;;;0.47;0.40;;;;;;;19.92;35.86;98348.75;5132133;27;20047;-57
2021/12/09 05:33:49;;;;;;;0.45;0.30;;;;;;;19.91;35.87;98353.53;5138756;27;20523;-56
2021/12/09 05:36:16;;;;;;;0.50;0.40;;;;;;;19.91;35.89;98349.97;5139090;27;20470;-56
2021/12/09 05:38:42;;;;;;;0.68;0.38;;;;;;;19.94;35.86;98360.28;5141192;27;20510;-56
2021/12/09 05:41:08;;;;;;;0.50;0.30;;;;;;;19.91;35.84;98370.19;5140403;27;20049;-57
2021/12/09 05:43:34;;;;;;;0.43;0.35;;;;;;;19.90;35.75;98374.16;5139189;27;20053;-56
2021/12/09 05:46:00;;;;;;;0.20;0.20;;;;;;;19.89;35.80;98382.88;5138918;27;20423;-56
2021/12/09 05:48:26;;;;;;;0.35;0.30;;;;;;;19.89;35.76;98380.09;5140460;27;20070;-56
2021/12/09 05:50:51;;;;;;;0.60;0.43;;;;;;;19.87;35.76;98383.28;5140586;27;20036;-56
2021/12/09 05:53:17;;;;;;;0.32;0.25;;;;;;;19.90;35.79;98390.00;5138998;27;20046;-56
2021/12/09 05:55:44;;;;;;;0.63;0.40;;;;;;;19.91;35.72;98395.16;5140836;27;20466;-56
2021/12/09 05:58:19;;;;;;;0.20;0.20;;;;;;;19.89;35.77;98391.19;5140170;27;20035;-56
2021/12/09 06:00:44;;;;;;;0.30;0.30;;;;;;;19.89;35.71;98385.63;5139720;27;20491;-57
2021/12/09 06:03:10;;;;;;;0.20;0.20;;;;;;;19.91;35.72;98386.03;5139664;27;20039;-57
2021/12/09 06:05:36;;;;;;;0.40;0.20;;;;;;;19.90;35.83;98392.78;5138507;27;20426;-57
2021/12/09 06:08:02;;;;;;;0.40;0.30;;;;;;;19.93;35.51;98400.31;5144658;27;20096;-56
2021/12/09 06:10:28;;;;;;;0.13;0.13;;;;;;;19.94;35.51;98388.84;5143535;27;20494;-56
2021/12/09 06:12:53;;;;;;;0.38;0.30;;;;;;;19.94;35.58;98391.59;5142434;27;20049;-56
2021/12/09 06:15:19;;;;;;;0.30;0.30;;;;;;;19.94;35.56;98388.03;5144352;27;20039;-56
2021/12/09 06:17:44;;;;;;;0.50;0.30;;;;;;;19.96;35.50;98382.88;5142877;27;20039;-56
2021/12/09 06:20:10;;;;;;;0.50;0.30;;;;;;;19.96;35.63;98382.88;5143283;27;20396;-56
2021/12/09 06:22:35;;;;;;;0.47;0.30;;;;;;;19.99;35.43;98388.44;5144490;27;20054;-56
2021/12/09 06:25:02;;;;;;;0.32;0.32;;;;;;;20.02;35.40;98392.41;5142185;27;20036;-56
2021/12/09 06:27:27;;;;;;;0.43;0.32;;;;;;;20.03;35.35;98394.78;5143374;27;20047;-56
2021/12/09 06:29:53;;;;;;;0.38;0.32;;;;;;;20.04;35.43;98401.91;5143868;27;20550;-55
2021/12/09 06:32:18;;;;;;;0.63;0.40;;;;;;;20.03;35.46;98394.00;5142315;27;20080;-56
2021/12/09 06:34:44;;;;;;;0.40;0.30;;;;;;;20.04;35.26;98384.47;5143805;27;20027;-56
2021/12/09 06:37:09;;;;;;;0.50;0.30;;;;;;;20.04;35.35;98390.03;5143120;27;20108;-55
2021/12/09 06:39:35;;;;;;;0.30;0.28;;;;;;;20.60;34.60;98389.28;5142180;27;20060;-55
2021/12/09 06:42:00;;;;;;;0.52;0.40;;;;;;;21.40;33.15;98385.16;5144046;27;20049;-56
2021/12/09 06:44:26;;;;;;;0.63;0.40;;;;;;;21.40;33.31;98390.72;5142623;27;20047;-56
2021/12/09 06:46:52;;;;;;;2.58;0.60;;;;;;;21.14;33.49;98381.63;5142691;27;20122;-49
2021/12/09 06:49:17;;;;;;;16.20;0.90;;;;;;;20.96;34.10;98400.34;5144165;27;20889;-46
2021/12/09 06:51:42;;;;;;;6.47;1.05;;;;;;;20.74;34.49;98396.03;5141885;27;20046;-45
2021/12/09 06:54:08;;;;;;;5.80;0.88;;;;;;;20.64;34.56;98411.50;5143039;27;20410;-46
2021/12/09 06:56:35;;;;;;;10.32;1.00;;;;;;;20.53;34.84;98417.06;5143384;27;20035;-45
2021/12/09 06:59:02;;;;;;;17.65;1.08;;;;;;;20.46;34.91;98417.06;5141382;27;20039;-45
2021/12/09 07:01:27;;;;;;;19.73;1.20;;;;;;;20.41;34.85;98411.09;5143017;27;20444;-56
2021/12/09 07:03:53;;;;;;;5.82;0.80;;;;;;;20.42;34.98;98418.22;5143131;27;20494;-55
2021/12/09 07:06:20;;;;;;;4.50;0.80;;;;;;;20.39;35.04;98421.81;5141646;27;20521;-55
2021/12/09 07:08:48;;;;;;;7.80;0.80;;;;;;;20.37;35.08;98427.75;5143079;27;20130;-55
2021/12/09 07:11:16;;;;;;;2.17;0.68;;;;;;;20.35;34.99;98433.69;5142968;27;20074;-55
2021/12/09 07:13:43;;;;;;;2.20;0.80;;;;;;;20.34;35.05;98443.22;5141276;27;20031;-55
2021/12/09 07:16:09;;;;;;;3.83;0.95;;;;;;;20.31;34.93;98444.00;5142589;27;20073;-56
2021/12/09 07:18:35;;;;;;;4.20;0.90;;;;;;;20.31;35.00;98448.78;5142147;27;20072;-55
2021/12/09 07:21:01;;;;;;;4.10;0.80;;;;;;;20.30;35.02;98449.97;5141078;27;20530;-55
2021/12/09 07:23:26;;;;;;;3.40;1.00;;;;;;;20.31;35.10;98455.13;5139719;27;20031;-56
2021/12/09 07:25:52;;;;;;;6.18;0.80;;;;;;;20.33;34.96;98455.50;5129983;27;20078;-56
2021/12/09 07:28:17;;;;;;;9.07;1.00;;;;;;;20.34;34.75;98457.09;5137985;27;20046;-56
2021/12/09 07:30:43;;;;;;;2.75;0.80;;;;;;;20.41;34.77;98461.06;5141281;27;20072;-55
2021/12/09 07:33:09;;;;;;;28.95;20.25;;;;;;;20.31;34.58;98466.22;5141310;27;20512;-55
2021/12/09 07:35:34;;;;;;;15.40;11.48;;;;;;;20.28;34.68;98467.00;5142224;27;20037;-55
2021/12/09 07:38:02;;;;;;;12.77;9.55;;;;;;;20.24;35.08;98471.78;5143137;27;20488;-57
2021/12/09 07:40:28;;;;;;;9.05;6.75;;;;;;;20.22;35.28;98467.81;5142655;27;20090;-58
2021/12/09 07:42:53;;;;;;;7.93;5.70;;;;;;;20.25;35.56;98473.34;5139730;27;20073;-56
2021/12/09 07:45:20;;;;;;;6.38;4.45;;;;;;;20.25;35.84;98495.56;5144109;27;20043;-57
2021/12/09 07:47:47;;;;;;;5.47;3.35;;;;;;;20.29;35.88;98490.03;5122022;27;20412;-57
2021/12/09 07:50:18;;;;;;;4.72;3.20;;;;;;;20.31;35.91;98488.44;5140218;27;20083;-56
2021/12/09 07:52:47;;;;;;;2.92;1.90;;;;;;;20.32;35.81;98484.47;5140136;27;20058;-57
2021/12/09 07:55:14;;;;;;;3.15;1.90;;;;;;;20.35;36.03;98492.00;5125576;27;20050;-57
2021/12/09 07:57:40;;;;;;;2.70;1.70;;;;;;;20.37;35.87;98490.84;5142033;27;20039;-47
2021/12/09 08:00:12;;;;;;;2.97;1.30;;;;;;;20.38;35.98;98498.78;5140764;27;20126;-45
2021/12/09 08:02:38;;;;;;;2.92;1.20;;;;;;;20.38;36.01;98503.53;5140329;27;20038;-45
2021/12/09 08:05:04;;;;;;;2.45;1.50;;;;;;;20.37;36.06;98507.50;5141032;27;20076;-45
2021/12/09 08:07:29;;;;;;;2.92;1.08;;;;;;;20.38;36.21;98511.88;5143240;27;20054;-44
2021/12/09 08:09:55;;;;;;;2.30;1.25;;;;;;;20.38;36.01;98514.66;5140756;27;20035;-45
2021/12/09 08:12:20;;;;;;;1.45;0.90;;;;;;;20.37;36.08;98501.94;5140454;27;20039;-46
2021/12/09 08:14:46;;;;;;;2.03;0.90;;;;;;;20.35;36.04;98510.66;5141479;27;20061;-44
2021/12/09 08:19:59;;;;;;;2.35;1.02;;;;;;;20.40;35.99;98524.16;5138967;27;20098;-45
2021/12/09 08:22:25;;;;;;;1.85;0.90;;;;;;;20.45;35.88;98526.59;5138724;27;20076;-46
2021/12/09 08:24:54;;;;;;;2.35;0.80;;;;;;;20.49;35.86;98532.16;5135600;27;20047;-45
2021/12/09 08:27:20;;;;;;;4.20;0.90;;;;;;;20.48;35.74;98533.34;5142172;27;20061;-45
2021/12/09 08:29:46;;;;;;;4.40;1.20;;;;;;;20.41;35.91;98528.53;5140462;27;20039;-46
2021/12/09 08:32:11;;;;;;;11.60;1.63;;;;;;;20.42;35.55;98540.44;5141929;27;20494;-47
2021/12/09 08:34:36;;;;;;;11.90;1.75;;;;;;;20.35;35.55;98532.88;5141865;27;20044;-45
2021/12/09 08:37:02;;;;;;;20.48;3.60;;;;;;;20.33;35.64;98536.06;5139929;27;20150;-45
2021/12/09 08:39:27;;;;;;;59.50;4.80;;;;;;;20.29;35.55;98535.25;5140840;27;20031;-45
2021/12/09 08:41:53;;;;;;;45.25;4.53;;;;;;;20.30;35.44;98539.63;5135276;27;20088;-56
2021/12/09 08:44:18;;;;;;;51.30;5.10;;;;;;;20.30;35.42;98538.84;5139389;27;20054;-56
2021/12/09 08:46:44;;;;;;;56.28;3.92;;;;;;;20.32;35.45;98544.78;5137017;27;20039;-56
2021/12/09 08:49:10;;;;;;;43.78;4.25;;;;;;;20.31;35.53;98541.22;5136887;27;20043;-56
2021/12/09 08:51:37;;;;;;;47.80;3.83;;;;;;;20.31;35.59;98538.44;5139968;27;20034;-56
2021/12/09 08:54:04;;;;;;;39.08;3.90;;;;;;;20.34;35.64;98545.97;5141750;27;20034;-56
2021/12/09 08:56:29;;;;;;;42.85;4.00;;;;;;;20.37;35.65;98549.16;5139052;27;20051;-46
2021/12/09 08:58:55;;;;;;;32.00;3.78;;;;;;;20.37;35.53;98555.50;5140736;27;20035;-45
2021/12/09 09:01:20;;;;;;;20.13;3.83;;;;;;;20.37;35.60;98554.72;5141056;27;20055;-45
2021/12/09 09:03:46;;;;;;;24.27;3.38;;;;;;;20.38;35.62;98556.31;5139706;27;20031;-46
2021/12/09 09:06:11;;;;;;;26.38;3.05;;;;;;;20.38;35.66;98564.63;5140101;27;20030;-56
2021/12/09 09:08:37;;;;;;;37.25;4.15;;;;;;;20.39;35.69;98569.00;5140151;27;20035;-56
2021/12/09 09:11:03;;;;;;;20.77;2.60;;;;;;;20.42;35.67;98568.22;5135115;27;20512;-56
2021/12/09 09:13:30;;;;;;;20.38;3.10;;;;;;;20.42;35.44;98568.22;5140817;27;20042;-56
2021/12/09 09:15:56;;;;;;;21.02;2.80;;;;;;;20.38;35.50;98565.44;5140858;27;20055;-56
2021/12/09 09:18:21;;;;;;;18.25;2.60;;;;;;;20.41;35.50;98569.41;5139225;27;20441;-56
2021/12/09 09:20:48;;;;;;;11.70;2.00;;;;;;;20.38;35.50;98565.44;5140383;27;20038;-56
2021/12/09 09:23:17;;;;;;;10.88;2.20;;;;;;;20.40;35.27;98567.81;5119127;27;20050;-45
2021/12/09 09:25:43;;;;;;;12.82;2.10;;;;;;;20.42;35.17;98565.44;5139140;27;20644;-46
2021/12/09 09:28:11;;;;;;;7.00;1.77;;;;;;;20.47;35.03;98570.63;5140945;27;20127;-45
2021/12/09 09:30:39;;;;;;;10.27;1.50;;;;;;;20.48;34.94;98573.03;5140927;27;20069;-46
2021/12/09 09:33:09;;;;;;;12.38;1.95;;;;;;;20.48;35.21;98580.56;5139113;27;20526;-45
2021/12/09 09:35:36;;;;;;;7.97;2.00;;;;;;;20.47;35.13;98581.75;5139978;27;20045;-45
2021/12/09 09:38:02;;;;;;;7.28;1.50;;;;;;;20.46;35.13;98577.38;5141284;27;20421;-45
2021/12/09 09:40:38;;;;;;;4.97;1.80;;;;;;;20.46;35.11;98586.50;5142060;27;20043;-46
2021/12/09 09:43:14;;;;;;;6.22;1.70;;;;;;;20.45;35.18;98576.59;5147575;27;20038;-45
2021/12/09 09:45:39;;;;;;;8.18;1.10;;;;;;;20.46;35.21;98575.41;5138201;27;20450;-46
2021/12/09 09:48:13;;;;;;;5.55;1.55;;;;;;;20.46;35.10;98571.84;5134609;27;20050;-45
2021/12/09 09:50:40;;;;;;;3.28;0.90;;;;;;;20.41;35.33;98569.41;5142234;27;20533;-46
2021/12/09 09:53:09;;;;;;;3.95;1.55;;;;;;;20.44;35.31;98576.97;5141150;27;20458;-45
2021/12/09 09:55:35;;;;;;;2.70;1.05;;;;;;;20.44;35.19;98588.06;5143938;27;20123;-45
2021/12/09 09:58:01;;;;;;;2.97;1.10;;;;;;;20.43;35.14;98594.78;5137654;27;20076;-45
2021/12/09 10:00:26;;;;;;;3.03;1.20;;;;;;;20.40;35.34;98585.28;5138978;27;20118;-45
2021/12/09 10:02:53;;;;;;;5.22;1.10;;;;;;;20.41;35.17;98586.06;5138291;27;20488;-45
2021/12/09 10:05:28;;;;;;;17.48;3.08;;;;;;;20.39;35.05;98585.66;5139410;27;20138;-46
2021/12/09 10:07:55;;;;;;;20.45;3.80;;;;;;;20.34;35.17;98579.28;5120957;27;20075;-45
2021/12/09 10:10:21;;;;;;;16.40;3.17;;;;;;;20.37;35.23;98586.06;5141086;27;20088;-45
2021/12/09 10:12:58;;;;;;;19.33;3.42;;;;;;;20.38;35.14;98586.84;5139138;27;20039;-54
2021/12/09 10:15:37;;;;;;;17.92;3.22;;;;;;;20.42;34.98;98593.22;5115191;27;20072;-55
2021/12/09 10:18:03;;;;;;;18.15;3.45;;;;;;;20.38;35.04;98581.31;5138591;27;20054;-54
2021/12/09 10:20:42;;;;;;;12.25;3.13;;;;;;;20.40;35.12;98576.16;5140553;27;20528;-55
2021/12/09 10:23:25;;;;;;;16.48;3.00;;;;;;;20.37;34.94;98576.94;5146178;27;20055;-48
2021/12/09 10:26:15;;;;;;;14.52;2.40;;;;;;;20.37;35.06;98579.72;5146882;27;20042;-55
2021/12/09 10:28:48;;;;;;;10.68;2.20;;;;;;;20.34;35.04;98573.75;5140951;27;20044;-54
2021/12/09 10:31:16;;;;;;;15.80;2.60;;;;;;;20.34;35.17;98570.16;5135152;27;20421;-45
2021/12/09 10:34:06;;;;;;;9.57;2.10;;;;;;;20.38;35.32;98559.88;5144328;27;20047;-45
2021/12/09 10:36:43;;;;;;;10.43;1.85;;;;;;;20.40;35.24;98559.47;5146036;27;20091;-45
2021/12/09 10:39:35;;;;;;;4.47;1.63;;;;;;;20.38;35.24;98553.53;5140696;27;20092;-55
2021/12/09 10:42:07;;;;;;;7.05;1.63;;;;;;;20.37;35.43;98555.50;5143785;27;20131;-55
2021/12/09 10:44:38;;;;;;;8.77;1.73;;;;;;;20.39;35.37;98557.91;5137234;27;20047;-54
2021/12/09 10:47:13;;;;;;;7.85;1.58;;;;;;;20.38;35.51;98561.88;5137474;27;21550;-55
2021/12/09 10:50:02;;;;;;;6.95;1.58;;;;;;;20.37;35.56;98561.06;5132186;27;20046;-55
2021/12/09 10:52:42;;;;;;;6.10;1.67;;;;;;;20.36;35.47;98559.47;5133692;27;20031;-55
2021/12/09 10:55:15;;;;;;;7.07;1.40;;;;;;;20.35;35.67;98550.31;5149441;27;20141;-45
2021/12/09 10:57:41;;;;;;;5.60;1.25;;;;;;;20.35;35.67;98550.31;5151583;27;20137;-47
2021/12/09 11:00:18;;;;;;;8.20;1.60;;;;;;;20.33;35.61;98541.59;5153378;27;20125;-46
2021/12/09 11:03:18;;;;;;;3.67;1.10;;;;;;;20.35;35.55;98538.44;5153506;27;20070;-45
2021/12/09 11:05:53;;;;;;;6.03;1.20;;;;;;;20.33;35.47;98536.06;5118824;27;20064;-45
2021/12/09 11:08:22;;;;;;;3.47;1.10;;;;;;;20.34;35.48;98540.41;5152509;27;20532;-45
2021/12/09 11:10:55;;;;;;;6.18;1.15;;;;;;;20.34;35.39;98537.63;5152970;27;20031;-45
2021/12/09 11:13:21;;;;;;;5.05;0.90;;;;;;;20.35;35.37;98544.78;5153009;27;20069;-45
2021/12/09 11:15:56;;;;;;;2.25;0.82;;;;;;;20.33;35.44;98547.16;5152586;27;20082;-45
2021/12/09 11:18:31;;;;;;;2.88;1.08;;;;;;;20.37;35.32;98544.41;5152860;27;20050;-45
2021/12/09 11:20:57;;;;;;;3.22;0.90;;;;;;;20.37;35.27;98546.38;5147124;27;20410;-45
2021/12/09 11:23:30;;;;;;;1.45;0.73;;;;;;;20.38;35.33;98545.19;5152998;27;20505;-55
2021/12/09 11:25:58;;;;;;;3.15;0.85;;;;;;;20.39;35.26;98536.47;5153222;27;20041;-55
2021/12/09 11:28:26;;;;;;;2.97;0.80;;;;;;;20.38;35.17;98531.31;5153645;27;20043;-55
2021/12/09 11:31:23;;;;;;;2.15;0.80;;;;;;;20.40;35.09;98545.59;5153241;27;20406;-55
2021/12/09 11:33:56;;;;;;;2.50;0.70;;;;;;;20.34;35.09;98536.84;5131588;27;20111;-55
2021/12/09 11:36:47;;;;;;;2.15;0.70;;;;;;;20.37;35.21;98541.63;5150458;27;20085;-55
2021/12/09 11:39:21;;;;;;;2.03;0.70;;;;;;;20.38;35.31;98540.44;5134281;27;20051;-55
2021/12/09 11:41:47;;;;;;;1.58;0.52;;;;;;;20.41;35.26;98542.41;5138229;27;20087;-55
2021/12/09 11:44:13;;;;;;;2.83;0.50;;;;;;;20.42;35.41;98532.09;5143775;27;20522;-55